sensor_id;sensor_type;location;lat;lon;timestamp;pressure;altitude;pressure_sealevel;temperature;humidity
18014;BME280;9132;47.946;10.394;2024-01-16T00:02:09;93396.16;;;-5.04;100.00
18014;BME280;9132;47.946;10.394;2024-01-16T00:04:37;93391.03;;;-5.04;100.00
18014;BME280;9132;47.946;10.394;2024-01-16T00:07:06;93398.28;;;-5.09;100.00
18014;BME280;9132;47.946;10.394;2024-01-16T00:09:33;93399.13;;;-5.09;100.00
18014;BME280;9132;47.946;10.394;2024-01-16T00:12:00;93401.31;;;-5.04;100.00
18014;BME280;9132;47.946;10.394;2024-01-16T00:14:27;93401.31;;;-5.04;100.00
18014;BME280;9132;47.946;10.394;2024-01-16T00:16:53;93405.06;;;-5.08;100.00
18014;BME280;9132;47.946;10.394;2024-01-16T00:19:20;93401.81;;;-5.10;100.00
18014;BME280;9132;47.946;10.394;2024-01-16T00:21:48;93411.16;;;-5.09;100.00
18014;BME280;9132;47.946;10.394;2024-01-16T00:24:15;93400.06;;;-5.10;100.00
18014;BME280;9132;47.946;10.394;2024-01-16T00:26:41;93410.22;;;-5.08;100.00
18014;BME280;9132;47.946;10.394;2024-01-16T00:29:09;93407.78;;;-5.10;100.00
18014;BME280;9132;47.946;10.394;2024-01-16T00:31:37;93406.34;;;-5.14;100.00
18014;BME280;9132;47.946;10.394;2024-01-16T00:34:04;93416.88;;;-5.17;100.00
18014;BME280;9132;47.946;10.394;2024-01-16T00:36:30;93406.16;;;-5.22;100.00
18014;BME280;9132;47.946;10.394;2024-01-16T00:38:58;93409.41;;;-5.31;100.00
18014;BME280;9132;47.946;10.394;2024-01-16T00:41:25;93402.28;;;-5.39;100.00
18014;BME280;9132;47.946;10.394;2024-01-16T00:43:52;93409.63;;;-5.46;100.00
18014;BME280;9132;47.946;10.394;2024-01-16T00:46:19;93407.44;;;-5.50;100.00
18014;BME280;9132;47.946;10.394;2024-01-16T00:48:46;93409.19;;;-5.51;100.00
18014;BME280;9132;47.946;10.394;2024-01-16T00:51:13;93409.50;;;-5.55;100.00
18014;BME280;9132;47.946;10.394;2024-01-16T00:53:40;93407.88;;;-5.56;100.00
18014;BME280;9132;47.946;10.394;2024-01-16T00:56:08;93408.34;;;-5.63;100.00
18014;BME280;9132;47.946;10.394;2024-01-16T00:58:35;93416.63;;;-5.59;100.00
18014;BME280;9132;47.946;10.394;2024-01-16T01:01:02;93424.03;;;-5.54;100.00
18014;BME280;9132;47.946;10.394;2024-01-16T01:03:29;93418.88;;;-5.54;100.00
18014;BME280;9132;47.946;10.394;2024-01-16T01:05:55;93427.72;;;-5.59;100.00
18014;BME280;9132;47.946;10.394;2024-01-16T01:08:22;93432.19;;;-5.61;100.00
18014;BME280;9132;47.946;10.394;2024-01-16T01:10:48;93421.19;;;-5.63;100.00
18014;BME280;9132;47.946;10.394;2024-01-16T01:13:16;93427.28;;;-5.64;100.00
18014;BME280;9132;47.946;10.394;2024-01-16T01:15:43;93424.56;;;-5.62;100.00
18014;BME280;9132;47.946;10.394;2024-01-16T01:18:09;93422.94;;;-5.63;100.00
18014;BME280;9132;47.946;10.394;2024-01-16T01:20:36;93422.81;;;-5.62;100.00
18014;BME280;9132;47.946;10.394;2024-01-16T01:23:02;93424.72;;;-5.64;100.00
18014;BME280;9132;47.946;10.394;2024-01-16T01:25:29;93426.81;;;-5.57;100.00
18014;BME280;9132;47.946;10.394;2024-01-16T01:27:55;93429.03;;;-5.53;100.00
18014;BME280;9132;47.946;10.394;2024-01-16T01:30:23;93433.34;;;-5.53;100.00
18014;BME280;9132;47.946;10.394;2024-01-16T01:32:50;93439.22;;;-5.51;100.00
18014;BME280;9132;47.946;10.394;2024-01-16T01:35:17;93433.00;;;-5.49;100.00
18014;BME280;9132;47.946;10.394;2024-01-16T01:37:45;93440.47;;;-5.46;100.00
18014;BME280;9132;47.946;10.394;2024-01-16T01:40:11;93442.00;;;-5.43;100.00
18014;BME280;9132;47.946;10.394;2024-01-16T01:42:51;93442.72;;;-5.41;100.00
18014;BME280;9132;47.946;10.394;2024-01-16T01:45:17;93449.72;;;-5.43;100.00
18014;BME280;9132;47.946;10.394;2024-01-16T01:47:46;93444.47;;;-5.42;100.00
18014;BME280;9132;47.946;10.394;2024-01-16T01:50:13;93430.78;;;-5.53;100.00
18014;BME280;9132;47.946;10.394;2024-01-16T01:52:40;93448.19;;;-5.46;100.00
18014;BME280;9132;47.946;10.394;2024-01-16T01:55:10;93446.31;;;-5.44;100.00
18014;BME280;9132;47.946;10.394;2024-01-16T01:57:38;93440.59;;;-5.47;100.00
18014;BME280;9132;47.946;10.394;2024-01-16T02:00:06;93444.13;;;-5.48;100.00
18014;BME280;9132;47.946;10.394;2024-01-16T02:02:33;93448.09;;;-5.44;100.00
18014;BME280;9132;47.946;10.394;2024-01-16T02:05:01;93439.88;;;-5.49;100.00
18014;BME280;9132;47.946;10.394;2024-01-16T02:07:29;93444.34;;;-5.51;100.00
18014;BME280;9132;47.946;10.394;2024-01-16T02:09:57;93453.91;;;-5.53;100.00
18014;BME280;9132;47.946;10.394;2024-01-16T02:12:25;93452.97;;;-5.52;100.00
18014;BME280;9132;47.946;10.394;2024-01-16T02:14:52;93461.13;;;-5.59;100.00
18014;BME280;9132;47.946;10.394;2024-01-16T02:17:19;93454.25;;;-5.58;100.00
18014;BME280;9132;47.946;10.394;2024-01-16T02:19:45;93448.50;;;-5.62;100.00
18014;BME280;9132;47.946;10.394;2024-01-16T02:22:17;93453.44;;;-5.59;100.00
18014;BME280;9132;47.946;10.394;2024-01-16T02:24:47;93458.91;;;-5.63;100.00
18014;BME280;9132;47.946;10.394;2024-01-16T02:27:14;93454.38;;;-5.60;100.00
18014;BME280;9132;47.946;10.394;2024-01-16T02:29:41;93458.78;;;-5.62;100.00
18014;BME280;9132;47.946;10.394;2024-01-16T02:32:10;93448.50;;;-5.62;100.00
18014;BME280;9132;47.946;10.394;2024-01-16T02:34:37;93457.97;;;-5.62;100.00
18014;BME280;9132;47.946;10.394;2024-01-16T02:37:04;93464.88;;;-5.63;100.00
18014;BME280;9132;47.946;10.394;2024-01-16T02:39:31;93458.34;;;-5.67;100.00
18014;BME280;9132;47.946;10.394;2024-01-16T02:41:59;93465.31;;;-5.69;100.00
18014;BME280;9132;47.946;10.394;2024-01-16T02:44:26;93459.59;;;-5.72;100.00
18014;BME280;9132;47.946;10.394;2024-01-16T02:46:53;93464.03;;;-5.74;100.00
18014;BME280;9132;47.946;10.394;2024-01-16T02:49:20;93460.53;;;-5.73;100.00
18014;BME280;9132;47.946;10.394;2024-01-16T02:51:46;93460.41;;;-5.72;100.00
18014;BME280;9132;47.946;10.394;2024-01-16T02:54:13;93469.88;;;-5.72;100.00
18014;BME280;9132;47.946;10.394;2024-01-16T02:56:39;93468.34;;;-5.75;100.00
18014;BME280;9132;47.946;10.394;2024-01-16T02:59:07;93468.47;;;-5.76;100.00
18014;BME280;9132;47.946;10.394;2024-01-16T03:01:34;93464.38;;;-5.79;100.00
18014;BME280;9132;47.946;10.394;2024-01-16T03:04:00;93468.56;;;-5.78;100.00
18014;BME280;9132;47.946;10.394;2024-01-16T03:06:27;93471.97;;;-5.77;100.00
18014;BME280;9132;47.946;10.394;2024-01-16T03:08:54;93470.56;;;-5.82;100.00
18014;BME280;9132;47.946;10.394;2024-01-16T03:11:20;93472.19;;;-5.80;100.00
18014;BME280;9132;47.946;10.394;2024-01-16T03:13:47;93476.19;;;-5.76;100.00
18014;BME280;9132;47.946;10.394;2024-01-16T03:16:16;93471.03;;;-5.76;100.00
18014;BME280;9132;47.946;10.394;2024-01-16T03:18:42;93472.69;;;-5.75;100.00
18014;BME280;9132;47.946;10.394;2024-01-16T03:21:10;93472.69;;;-5.75;100.00
18014;BME280;9132;47.946;10.394;2024-01-16T03:23:37;93467.88;;;-5.80;100.00
18014;BME280;9132;47.946;10.394;2024-01-16T03:26:04;93469.75;;;-5.82;100.00
18014;BME280;9132;47.946;10.394;2024-01-16T03:28:32;93472.41;;;-5.84;100.00
18014;BME280;9132;47.946;10.394;2024-01-16T03:30:59;93463.28;;;-5.88;100.00
18014;BME280;9132;47.946;10.394;2024-01-16T03:33:29;93458.06;;;-5.86;100.00
18014;BME280;9132;47.946;10.394;2024-01-16T03:35:55;93462.25;;;-5.85;100.00
18014;BME280;9132;47.946;10.394;2024-01-16T03:38:22;93455.38;;;-5.85;100.00
18014;BME280;9132;47.946;10.394;2024-01-16T03:40:48;93453.38;;;-5.81;100.00
18014;BME280;9132;47.946;10.394;2024-01-16T03:43:15;93452.56;;;-5.82;100.00
18014;BME280;9132;47.946;10.394;2024-01-16T03:45:41;93454.31;;;-5.82;100.00
18014;BME280;9132;47.946;10.394;2024-01-16T03:48:09;93454.31;;;-5.82;100.00
18014;BME280;9132;47.946;10.394;2024-01-16T03:50:37;93456.09;;;-5.83;100.00
18014;BME280;9132;47.946;10.394;2024-01-16T03:53:03;93451.53;;;-5.79;100.00
18014;BME280;9132;47.946;10.394;2024-01-16T03:55:30;93467.75;;;-5.78;100.00
18014;BME280;9132;47.946;10.394;2024-01-16T03:57:56;93454.91;;;-5.78;100.00
18014;BME280;9132;47.946;10.394;2024-01-16T04:00:23;93460.28;;;-5.82;100.00
18014;BME280;9132;47.946;10.394;2024-01-16T04:02:50;93457.00;;;-5.84;100.00
18014;BME280;9132;47.946;10.394;2024-01-16T04:05:16;93464.25;;;-5.89;100.00
18014;BME280;9132;47.946;10.394;2024-01-16T04:07:44;93462.03;;;-5.93;100.00
18014;BME280;9132;47.946;10.394;2024-01-16T04:10:11;93469.34;;;-6.00;100.00
18014;BME280;9132;47.946;10.394;2024-01-16T04:12:37;93464.66;;;-6.06;100.00
18014;BME280;9132;47.946;10.394;2024-01-16T04:15:05;93460.69;;;-6.10;100.00
18014;BME280;9132;47.946;10.394;2024-01-16T04:17:31;93457.53;;;-6.14;100.00
18014;BME280;9132;47.946;10.394;2024-01-16T04:19:58;93462.06;;;-6.17;100.00
18014;BME280;9132;47.946;10.394;2024-01-16T04:22:24;93458.91;;;-6.21;100.00
18014;BME280;9132;47.946;10.394;2024-01-16T04:24:53;93459.81;;;-6.22;100.00
18014;BME280;9132;47.946;10.394;2024-01-16T04:27:19;93459.94;;;-6.23;100.00
18014;BME280;9132;47.946;10.394;2024-01-16T04:29:46;93452.25;;;-6.23;100.00
18014;BME280;9132;47.946;10.394;2024-01-16T04:32:13;93453.28;;;-6.26;100.00
18014;BME280;9132;47.946;10.394;2024-01-16T04:34:40;93458.84;;;-6.32;100.00
18014;BME280;9132;47.946;10.394;2024-01-16T04:37:06;93462.06;;;-6.41;100.00
18014;BME280;9132;47.946;10.394;2024-01-16T04:39:33;93468.59;;;-6.48;100.00
18014;BME280;9132;47.946;10.394;2024-01-16T04:42:01;93470.03;;;-6.57;100.00
18014;BME280;9132;47.946;10.394;2024-01-16T04:44:27;93468.94;;;-6.66;100.00
18014;BME280;9132;47.946;10.394;2024-01-16T04:46:54;93475.44;;;-6.73;100.00
18014;BME280;9132;47.946;10.394;2024-01-16T04:49:20;93470.84;;;-6.81;100.00
18014;BME280;9132;47.946;10.394;2024-01-16T04:51:47;93468.50;;;-6.84;100.00
18014;BME280;9132;47.946;10.394;2024-01-16T04:54:13;93467.06;;;-6.88;100.00
18014;BME280;9132;47.946;10.394;2024-01-16T04:56:40;93470.75;;;-6.92;100.00
18014;BME280;9132;47.946;10.394;2024-01-16T04:59:08;93468.31;;;-6.93;100.00
18014;BME280;9132;47.946;10.394;2024-01-16T05:01:34;93468.53;;;-6.96;100.00
18014;BME280;9132;47.946;10.394;2024-01-16T05:04:01;93472.81;;;-6.97;100.00
18014;BME280;9132;47.946;10.394;2024-01-16T05:06:28;93464.44;;;-6.99;100.00
18014;BME280;9132;47.946;10.394;2024-01-16T05:08:55;93474.19;;;-7.04;100.00
18014;BME280;9132;47.946;10.394;2024-01-16T05:11:22;93477.16;;;-7.10;100.00
18014;BME280;9132;47.946;10.394;2024-01-16T05:13:48;93479.84;;;-7.12;100.00
18014;BME280;9132;47.946;10.394;2024-01-16T05:16:16;93482.63;;;-7.15;100.00
18014;BME280;9132;47.946;10.394;2024-01-16T05:18:43;93485.25;;;-7.16;100.00
18014;BME280;9132;47.946;10.394;2024-01-16T05:21:10;93476.03;;;-7.19;100.00
18014;BME280;9132;47.946;10.394;2024-01-16T05:23:36;93472.38;;;-7.28;100.00
18014;BME280;9132;47.946;10.394;2024-01-16T05:26:03;93474.63;;;-7.36;100.00
18014;BME280;9132;47.946;10.394;2024-01-16T05:28:30;93466.13;;;-7.36;100.00
18014;BME280;9132;47.946;10.394;2024-01-16T05:30:57;93461.22;;;-7.39;100.00
18014;BME280;9132;47.946;10.394;2024-01-16T05:33:25;93459.88;;;-7.45;100.00
18014;BME280;9132;47.946;10.394;2024-01-16T05:35:52;93456.81;;;-7.50;100.00
18014;BME280;9132;47.946;10.394;2024-01-16T05:38:19;93458.13;;;-7.57;100.00
18014;BME280;9132;47.946;10.394;2024-01-16T05:40:45;93443.91;;;-7.74;100.00
18014;BME280;9132;47.946;10.394;2024-01-16T05:43:12;93453.34;;;-7.75;100.00
18014;BME280;9132;47.946;10.394;2024-01-16T05:45:39;93453.41;;;-7.89;100.00
18014;BME280;9132;47.946;10.394;2024-01-16T05:48:06;93454.22;;;-8.01;100.00
18014;BME280;9132;47.946;10.394;2024-01-16T05:50:36;93440.50;;;-8.13;100.00
18014;BME280;9132;47.946;10.394;2024-01-16T05:53:03;93435.66;;;-8.18;100.00
18014;BME280;9132;47.946;10.394;2024-01-16T05:55:31;93437.50;;;-8.20;100.00
18014;BME280;9132;47.946;10.394;2024-01-16T05:57:58;93434.03;;;-8.19;100.00
18014;BME280;9132;47.946;10.394;2024-01-16T06:00:25;93430.94;;;-8.24;100.00
18014;BME280;9132;47.946;10.394;2024-01-16T06:02:52;93428.59;;;-8.27;100.00
18014;BME280;9132;47.946;10.394;2024-01-16T06:05:18;93426.34;;;-8.31;100.00
18014;BME280;9132;47.946;10.394;2024-01-16T06:07:46;93430.94;;;-8.36;100.00
18014;BME280;9132;47.946;10.394;2024-01-16T06:10:13;93425.22;;;-8.40;100.00
18014;BME280;9132;47.946;10.394;2024-01-16T06:12:40;93422.13;;;-8.45;100.00
18014;BME280;9132;47.946;10.394;2024-01-16T06:15:07;93417.31;;;-8.50;100.00
18014;BME280;9132;47.946;10.394;2024-01-16T06:17:34;93409.84;;;-8.53;100.00
18014;BME280;9132;47.946;10.394;2024-01-16T06:20:01;93412.50;;;-8.54;100.00
18014;BME280;9132;47.946;10.394;2024-01-16T06:22:28;93406.69;;;-8.56;100.00
18014;BME280;9132;47.946;10.394;2024-01-16T06:24:56;93410.34;;;-8.60;100.00
18014;BME280;9132;47.946;10.394;2024-01-16T06:27:22;93413.00;;;-8.62;100.00
18014;BME280;9132;47.946;10.394;2024-01-16T06:29:49;93407.16;;;-8.64;100.00
18014;BME280;9132;47.946;10.394;2024-01-16T06:32:16;93408.00;;;-8.64;100.00
18014;BME280;9132;47.946;10.394;2024-01-16T06:34:43;93408.91;;;-8.65;100.00
18014;BME280;9132;47.946;10.394;2024-01-16T06:37:09;93402.03;;;-8.64;100.00
18014;BME280;9132;47.946;10.394;2024-01-16T06:39:36;93410.63;;;-8.65;100.00
18014;BME280;9132;47.946;10.394;2024-01-16T06:42:05;93396.66;;;-8.59;100.00
18014;BME280;9132;47.946;10.394;2024-01-16T06:44:31;93393.69;;;-8.53;100.00
18014;BME280;9132;47.946;10.394;2024-01-16T06:46:58;93400.25;;;-8.49;100.00
18014;BME280;9132;47.946;10.394;2024-01-16T06:49:25;93407.72;;;-8.46;100.00
18014;BME280;9132;47.946;10.394;2024-01-16T06:51:52;93415.19;;;-8.43;100.00
18014;BME280;9132;47.946;10.394;2024-01-16T06:54:18;93406.06;;;-8.34;100.00
18014;BME280;9132;47.946;10.394;2024-01-16T06:56:46;93403.94;;;-8.28;100.00
18014;BME280;9132;47.946;10.394;2024-01-16T06:59:15;93403.75;;;-8.25;100.00
18014;BME280;9132;47.946;10.394;2024-01-16T07:01:44;93395.94;;;-8.23;100.00
18014;BME280;9132;47.946;10.394;2024-01-16T07:04:11;93394.66;;;-8.16;100.00
18014;BME280;9132;47.946;10.394;2024-01-16T07:06:39;93398.63;;;-8.12;100.00
18014;BME280;9132;47.946;10.394;2024-01-16T07:09:06;93393.19;;;-8.07;100.00
18014;BME280;9132;47.946;10.394;2024-01-16T07:11:36;93397.91;;;-8.01;100.00
18014;BME280;9132;47.946;10.394;2024-01-16T07:14:03;93400.06;;;-7.95;100.00
18014;BME280;9132;47.946;10.394;2024-01-16T07:16:30;93397.22;;;-7.90;100.00
18014;BME280;9132;47.946;10.394;2024-01-16T07:18:57;93400.38;;;-7.87;100.00
18014;BME280;9132;47.946;10.394;2024-01-16T07:21:24;93394.34;;;-7.86;100.00
18014;BME280;9132;47.946;10.394;2024-01-16T07:23:50;93406.22;;;-7.85;100.00
18014;BME280;9132;47.946;10.394;2024-01-16T07:26:17;93405.78;;;-7.79;100.00
18014;BME280;9132;47.946;10.394;2024-01-16T07:28:43;93406.44;;;-7.75;100.00
18014;BME280;9132;47.946;10.394;2024-01-16T07:31:10;93411.97;;;-7.68;100.00
18014;BME280;9132;47.946;10.394;2024-01-16T07:33:38;93410.50;;;-7.60;100.00
18014;BME280;9132;47.946;10.394;2024-01-16T07:36:05;93415.72;;;-7.49;100.00
18014;BME280;9132;47.946;10.394;2024-01-16T07:38:32;93402.78;;;-7.34;100.00
18014;BME280;9132;47.946;10.394;2024-01-16T07:40:59;93408.09;;;-7.25;100.00
18014;BME280;9132;47.946;10.394;2024-01-16T07:43:26;93407.34;;;-7.14;100.00
18014;BME280;9132;47.946;10.394;2024-01-16T07:45:52;93407.53;;;-7.04;100.00
18014;BME280;9132;47.946;10.394;2024-01-16T07:48:19;93402.78;;;-6.97;100.00
18014;BME280;9132;47.946;10.394;2024-01-16T07:50:47;93410.75;;;-6.89;100.00
18014;BME280;9132;47.946;10.394;2024-01-16T07:53:13;93398.13;;;-6.80;100.00
18014;BME280;9132;47.946;10.394;2024-01-16T07:55:40;93397.47;;;-6.70;100.00
18014;BME280;9132;47.946;10.394;2024-01-16T07:58:07;93394.13;;;-6.60;100.00
18014;BME280;9132;47.946;10.394;2024-01-16T08:00:33;93390.06;;;-6.51;100.00
18014;BME280;9132;47.946;10.394;2024-01-16T08:03:00;93403.06;;;-6.41;100.00
18014;BME280;9132;47.946;10.394;2024-01-16T08:05:26;93398.88;;;-6.31;100.00
18014;BME280;9132;47.946;10.394;2024-01-16T08:07:56;93396.00;;;-6.26;100.00
18014;BME280;9132;47.946;10.394;2024-01-16T08:10:23;93391.69;;;-6.15;100.00
18014;BME280;9132;47.946;10.394;2024-01-16T08:12:49;93393.50;;;-6.04;100.00
18014;BME280;9132;47.946;10.394;2024-01-16T08:15:16;93397.94;;;-5.95;100.00
18014;BME280;9132;47.946;10.394;2024-01-16T08:17:42;93393.72;;;-5.85;100.00
18014;BME280;9132;47.946;10.394;2024-01-16T08:20:10;93385.56;;;-5.78;100.00
18014;BME280;9132;47.946;10.394;2024-01-16T08:22:37;93377.41;;;-5.61;100.00
18014;BME280;9132;47.946;10.394;2024-01-16T08:25:05;93384.28;;;-5.50;100.00
18014;BME280;9132;47.946;10.394;2024-01-16T08:27:32;93375.19;;;-5.43;100.00
18014;BME280;9132;47.946;10.394;2024-01-16T08:29:59;93384.88;;;-5.36;100.00
18014;BME280;9132;47.946;10.394;2024-01-16T08:32:26;93379.84;;;-5.26;100.00
18014;BME280;9132;47.946;10.394;2024-01-16T08:34:53;93384.16;;;-5.15;100.00
18014;BME280;9132;47.946;10.394;2024-01-16T08:37:19;93384.25;;;-5.05;100.00
18014;BME280;9132;47.946;10.394;2024-01-16T08:39:46;93383.53;;;-4.96;100.00
18014;BME280;9132;47.946;10.394;2024-01-16T08:42:14;93388.78;;;-4.86;100.00
18014;BME280;9132;47.946;10.394;2024-01-16T08:44:40;93393.91;;;-4.75;100.00
18014;BME280;9132;47.946;10.394;2024-01-16T08:47:07;93390.03;;;-4.70;100.00
18014;BME280;9132;47.946;10.394;2024-01-16T08:49:34;93392.94;;;-4.63;100.00
18014;BME280;9132;47.946;10.394;2024-01-16T08:52:03;93385.81;;;-4.59;100.00
18014;BME280;9132;47.946;10.394;2024-01-16T08:54:30;93395.59;;;-4.53;100.00
18014;BME280;9132;47.946;10.394;2024-01-16T08:56:57;93392.78;;;-4.50;100.00
18014;BME280;9132;47.946;10.394;2024-01-16T08:59:25;93390.41;;;-4.42;100.00
18014;BME280;9132;47.946;10.394;2024-01-16T09:01:53;93382.88;;;-4.34;100.00
18014;BME280;9132;47.946;10.394;2024-01-16T09:04:20;93379.81;;;-4.28;100.00
18014;BME280;9132;47.946;10.394;2024-01-16T09:06:46;93373.94;;;-4.18;100.00
18014;BME280;9132;47.946;10.394;2024-01-16T09:09:12;93378.19;;;-4.08;100.00
18014;BME280;9132;47.946;10.394;2024-01-16T09:11:41;93381.78;;;-3.99;100.00
18014;BME280;9132;47.946;10.394;2024-01-16T09:14:07;93367.69;;;-3.95;100.00
18014;BME280;9132;47.946;10.394;2024-01-16T09:16:35;93375.19;;;-3.92;100.00
18014;BME280;9132;47.946;10.394;2024-01-16T09:19:02;93369.53;;;-3.86;100.00
18014;BME280;9132;47.946;10.394;2024-01-16T09:21:28;93358.72;;;-3.80;100.00
18014;BME280;9132;47.946;10.394;2024-01-16T09:23:55;93367.69;;;-3.74;100.00
18014;BME280;9132;47.946;10.394;2024-01-16T09:26:21;93351.72;;;-3.68;100.00
18014;BME280;9132;47.946;10.394;2024-01-16T09:28:48;93369.25;;;-3.62;100.00
18014;BME280;9132;47.946;10.394;2024-01-16T09:31:15;93369.81;;;-3.58;100.00
18014;BME280;9132;47.946;10.394;2024-01-16T09:33:43;93360.63;;;-3.51;100.00
18014;BME280;9132;47.946;10.394;2024-01-16T09:36:09;93367.72;;;-3.43;100.00
18014;BME280;9132;47.946;10.394;2024-01-16T09:38:36;93363.13;;;-3.40;100.00
18014;BME280;9132;47.946;10.394;2024-01-16T09:41:03;93357.19;;;-3.31;100.00
18014;BME280;9132;47.946;10.394;2024-01-16T09:43:31;93355.44;;;-3.20;100.00
18014;BME280;9132;47.946;10.394;2024-01-16T09:46:00;93353.72;;;-3.10;100.00
18014;BME280;9132;47.946;10.394;2024-01-16T09:48:28;93355.66;;;-3.03;100.00
18014;BME280;9132;47.946;10.394;2024-01-16T09:50:56;93360.13;;;-2.95;100.00
18014;BME280;9132;47.946;10.394;2024-01-16T09:53:23;93358.91;;;-2.91;100.00
18014;BME280;9132;47.946;10.394;2024-01-16T09:55:54;93357.47;;;-2.84;100.00
18014;BME280;9132;47.946;10.394;2024-01-16T09:58:21;93355.16;;;-2.77;100.00
18014;BME280;9132;47.946;10.394;2024-01-16T10:00:47;93356.09;;;-2.68;100.00
18014;BME280;9132;47.946;10.394;2024-01-16T10:03:15;93350.13;;;-2.59;100.00
18014;BME280;9132;47.946;10.394;2024-01-16T10:05:43;93350.81;;;-2.47;100.00
18014;BME280;9132;47.946;10.394;2024-01-16T10:08:13;93347.44;;;-2.38;100.00
18014;BME280;9132;47.946;10.394;2024-01-16T10:10:40;93337.09;;;-2.28;100.00
18014;BME280;9132;47.946;10.394;2024-01-16T10:13:06;93340.38;;;-2.17;100.00
18014;BME280;9132;47.946;10.394;2024-01-16T10:15:33;93342.78;;;-2.05;100.00
18014;BME280;9132;47.946;10.394;2024-01-16T10:18:00;93342.78;;;-1.96;100.00
18014;BME280;9132;47.946;10.394;2024-01-16T10:20:33;93336.50;;;-1.83;100.00
18014;BME280;9132;47.946;10.394;2024-01-16T10:23:00;93335.66;;;-1.74;100.00
18014;BME280;9132;47.946;10.394;2024-01-16T10:25:30;93324.09;;;-1.70;100.00
18014;BME280;9132;47.946;10.394;2024-01-16T10:28:06;93327.19;;;-1.57;100.00
18014;BME280;9132;47.946;10.394;2024-01-16T10:30:35;93324.03;;;-1.51;100.00
18014;BME280;9132;47.946;10.394;2024-01-16T10:33:12;93317.03;;;-1.41;100.00
18014;BME280;9132;47.946;10.394;2024-01-16T10:35:40;93313.22;;;-1.36;100.00
18014;BME280;9132;47.946;10.394;2024-01-16T10:38:06;93312.78;;;-1.32;100.00
18014;BME280;9132;47.946;10.394;2024-01-16T10:40:34;93307.41;;;-1.21;100.00
18014;BME280;9132;47.946;10.394;2024-01-16T10:43:02;93307.94;;;-1.17;100.00
18014;BME280;9132;47.946;10.394;2024-01-16T10:45:30;93295.78;;;-1.07;100.00
18014;BME280;9132;47.946;10.394;2024-01-16T10:48:03;93298.31;;;-0.97;100.00
18014;BME280;9132;47.946;10.394;2024-01-16T10:50:31;93299.44;;;-0.82;100.00
18014;BME280;9132;47.946;10.394;2024-01-16T10:52:59;93298.25;;;-0.70;100.00
18014;BME280;9132;47.946;10.394;2024-01-16T10:55:28;93292.88;;;-0.58;100.00
18014;BME280;9132;47.946;10.394;2024-01-16T10:57:57;93294.56;;;-0.49;100.00
18014;BME280;9132;47.946;10.394;2024-01-16T11:00:27;93296.41;;;-0.41;100.00
18014;BME280;9132;47.946;10.394;2024-01-16T11:02:58;93297.31;;;-0.33;100.00
18014;BME280;9132;47.946;10.394;2024-01-16T11:05:27;93294.13;;;-0.27;100.00
18014;BME280;9132;47.946;10.394;2024-01-16T11:07:55;93296.91;;;-0.20;100.00
18014;BME280;9132;47.946;10.394;2024-01-16T11:10:23;93293.44;;;-0.11;100.00
18014;BME280;9132;47.946;10.394;2024-01-16T11:12:51;93296.41;;;-0.06;100.00
18014;BME280;9132;47.946;10.394;2024-01-16T11:15:21;93290.75;;;-0.01;100.00
18014;BME280;9132;47.946;10.394;2024-01-16T11:17:48;93298.22;;;0.02;100.00
18014;BME280;9132;47.946;10.394;2024-01-16T11:20:16;93291.56;;;-0.01;100.00
18014;BME280;9132;47.946;10.394;2024-01-16T11:22:45;93294.00;;;0.01;100.00
18014;BME280;9132;47.946;10.394;2024-01-16T11:25:12;93283.16;;;0.06;100.00
18014;BME280;9132;47.946;10.394;2024-01-16T11:27:42;93286.81;;;0.13;100.00
18014;BME280;9132;47.946;10.394;2024-01-16T11:30:10;93287.00;;;0.19;100.00
18014;BME280;9132;47.946;10.394;2024-01-16T11:32:39;93284.25;;;0.21;100.00
18014;BME280;9132;47.946;10.394;2024-01-16T11:35:07;93282.81;;;0.27;100.00
18014;BME280;9132;47.946;10.394;2024-01-16T11:37:35;93277.84;;;0.33;100.00
18014;BME280;9132;47.946;10.394;2024-01-16T11:40:30;93279.97;;;0.38;100.00
18014;BME280;9132;47.946;10.394;2024-01-16T11:42:58;93267.34;;;0.43;100.00
18014;BME280;9132;47.946;10.394;2024-01-16T11:45:50;93261.34;;;0.42;100.00
18014;BME280;9132;47.946;10.394;2024-01-16T11:48:19;93259.72;;;0.41;99.55
18014;BME280;9132;47.946;10.394;2024-01-16T11:50:46;93254.88;;;0.46;99.00
18014;BME280;9132;47.946;10.394;2024-01-16T11:53:32;93250.91;;;0.60;100.00
18014;BME280;9132;47.946;10.394;2024-01-16T11:56:11;93249.50;;;0.74;100.00
18014;BME280;9132;47.946;10.394;2024-01-16T11:58:45;93249.00;;;0.71;94.58
18014;BME280;9132;47.946;10.394;2024-01-16T12:01:15;93256.09;;;0.60;92.75
18014;BME280;9132;47.946;10.394;2024-01-16T12:03:56;93247.78;;;0.57;95.17
18014;BME280;9132;47.946;10.394;2024-01-16T12:06:27;93239.84;;;0.58;97.86
18014;BME280;9132;47.946;10.394;2024-01-16T12:08:54;93237.09;;;0.60;97.33
18014;BME280;9132;47.946;10.394;2024-01-16T12:11:20;93238.25;;;0.65;97.45
18014;BME280;9132;47.946;10.394;2024-01-16T12:14:00;93231.16;;;0.76;97.89
18014;BME280;9132;47.946;10.394;2024-01-16T12:16:27;93208.16;;;0.89;99.95
18014;BME280;9132;47.946;10.394;2024-01-16T12:19:05;93205.59;;;1.05;100.00
18014;BME280;9132;47.946;10.394;2024-01-16T12:21:34;93193.13;;;1.17;99.44
18014;BME280;9132;47.946;10.394;2024-01-16T12:24:00;93193.28;;;1.32;100.00
18014;BME280;9132;47.946;10.394;2024-01-16T12:26:29;93196.56;;;1.42;98.94
18014;BME280;9132;47.946;10.394;2024-01-16T12:28:56;93179.16;;;1.51;98.27
18014;BME280;9132;47.946;10.394;2024-01-16T12:31:22;93183.22;;;1.53;94.81
18014;BME280;9132;47.946;10.394;2024-01-16T12:33:50;93178.53;;;1.49;92.88
18014;BME280;9132;47.946;10.394;2024-01-16T12:36:18;93167.66;;;1.45;94.86
18014;BME280;9132;47.946;10.394;2024-01-16T12:38:45;93159.50;;;1.32;95.52
18014;BME280;9132;47.946;10.394;2024-01-16T12:41:20;93161.47;;;1.30;94.62
18014;BME280;9132;47.946;10.394;2024-01-16T12:43:49;93166.19;;;1.26;94.21
18014;BME280;9132;47.946;10.394;2024-01-16T12:46:15;93156.25;;;1.22;91.57
18014;BME280;9132;47.946;10.394;2024-01-16T12:48:44;93157.25;;;1.21;96.34
18014;BME280;9132;47.946;10.394;2024-01-16T12:51:16;93157.88;;;1.23;96.16
18014;BME280;9132;47.946;10.394;2024-01-16T12:53:48;93155.94;;;1.25;95.36
18014;BME280;9132;47.946;10.394;2024-01-16T12:56:18;93153.34;;;1.25;95.23